createdAt,value
2022-12-31T00:00:24.735Z,12.57
2022-12-31T00:01:24.883Z,12.61
2022-12-31T00:02:25.084Z,12.60
2022-12-31T00:03:25.315Z,12.61
2022-12-31T00:04:25.370Z,12.59
2022-12-31T00:05:25.568Z,12.63
2022-12-31T00:06:25.707Z,12.60
2022-12-31T00:07:25.884Z,12.61
2022-12-31T00:08:26.068Z,12.60
2022-12-31T00:09:26.269Z,12.61
2022-12-31T00:10:26.461Z,12.61
2022-12-31T00:11:26.616Z,12.67
2022-12-31T00:12:26.797Z,12.66
2022-12-31T00:13:26.981Z,12.64
2022-12-31T00:14:27.159Z,12.69
2022-12-31T00:15:27.352Z,12.69
2022-12-31T00:16:27.569Z,12.74
2022-12-31T00:17:27.693Z,12.71
2022-12-31T00:18:27.872Z,12.72
2022-12-31T00:19:28.053Z,12.71
2022-12-31T00:20:28.275Z,12.72
2022-12-31T00:21:28.428Z,12.75
2022-12-31T00:22:28.606Z,12.75
2022-12-31T00:23:28.790Z,12.74
2022-12-31T00:24:28.973Z,12.78
2022-12-31T00:25:29.185Z,12.78
2022-12-31T00:26:29.354Z,12.78
2022-12-31T00:27:29.493Z,12.75
2022-12-31T00:28:29.670Z,12.78
2022-12-31T00:29:29.866Z,12.78
2022-12-31T00:30:30.146Z,12.78
2022-12-31T00:31:30.211Z,12.79
2022-12-31T00:32:30.411Z,12.80
2022-12-31T00:33:30.566Z,12.78
2022-12-31T00:34:30.746Z,12.80
2022-12-31T00:35:30.987Z,12.75
2022-12-31T00:36:31.093Z,12.74
2022-12-31T00:37:31.272Z,12.79
2022-12-31T00:38:31.446Z,12.80
2022-12-31T00:39:31.639Z,12.80
2022-12-31T00:40:31.840Z,12.83
2022-12-31T00:41:31.978Z,12.82
2022-12-31T00:42:32.165Z,12.85
2022-12-31T00:43:32.337Z,12.82
2022-12-31T00:44:32.519Z,12.87
2022-12-31T00:45:32.717Z,12.87
2022-12-31T00:46:32.974Z,12.87
2022-12-31T00:47:33.027Z,12.87
2022-12-31T00:48:33.225Z,12.86
2022-12-31T00:49:33.409Z,12.87
2022-12-31T00:50:33.590Z,12.87
2022-12-31T00:51:33.820Z,12.93
2022-12-31T00:52:33.940Z,12.93
2022-12-31T00:53:34.128Z,12.91
2022-12-31T00:54:34.281Z,12.93
2022-12-31T00:55:34.470Z,12.91
2022-12-31T00:56:34.635Z,12.95
2022-12-31T00:57:34.819Z,12.95
2022-12-31T00:58:35.002Z,12.98
2022-12-31T00:59:35.173Z,12.97
2022-12-31T01:00:35.393Z,13.01
2022-12-31T01:01:35.664Z,12.97
2022-12-31T01:02:35.970Z,13.01
2022-12-31T01:03:35.926Z,13.04
2022-12-31T01:04:36.047Z,13.03
2022-12-31T01:05:36.221Z,13.04
2022-12-31T01:06:36.402Z,13.05
2022-12-31T01:07:36.599Z,13.04
2022-12-31T01:08:36.785Z,13.05
2022-12-31T01:09:36.948Z,13.09
2022-12-31T01:10:37.136Z,13.07
2022-12-31T01:11:37.334Z,13.09
2022-12-31T01:12:37.473Z,13.04
2022-12-31T01:13:37.654Z,13.05
2022-12-31T01:14:37.825Z,13.04
2022-12-31T01:15:38.057Z,13.03
2022-12-31T01:16:38.175Z,13.03
2022-12-31T01:17:38.348Z,13.04
2022-12-31T01:18:38.534Z,13.03
2022-12-31T01:19:38.706Z,13.07
2022-12-31T01:20:38.908Z,13.07
2022-12-31T01:21:39.073Z,13.11
2022-12-31T01:22:39.227Z,13.11
2022-12-31T01:23:39.402Z,13.13
2022-12-31T01:24:39.589Z,13.15
2022-12-31T01:25:39.792Z,13.19
2022-12-31T01:26:39.927Z,13.19
2022-12-31T01:27:40.119Z,13.25
2022-12-31T01:28:40.303Z,13.25
2022-12-31T01:29:40.483Z,13.25
2022-12-31T01:30:40.699Z,13.22
2022-12-31T01:31:40.867Z,13.27
2022-12-31T01:32:41.015Z,13.30
2022-12-31T01:33:41.193Z,13.27
2022-12-31T01:34:41.382Z,13.31
2022-12-31T01:35:41.594Z,13.35
2022-12-31T01:36:41.731Z,13.35
2022-12-31T01:37:41.907Z,13.37
2022-12-31T01:38:42.097Z,13.34
2022-12-31T01:39:42.273Z,13.35
2022-12-31T01:40:42.481Z,13.37
2022-12-31T01:41:42.637Z,13.37
2022-12-31T01:42:42.810Z,13.43
2022-12-31T01:43:42.983Z,13.40
2022-12-31T01:44:43.173Z,13.44
2022-12-31T01:45:43.367Z,13.41
2022-12-31T01:46:43.596Z,13.46
2022-12-31T01:47:43.726Z,13.48
2022-12-31T01:48:43.899Z,13.48
2022-12-31T01:49:44.083Z,13.52
2022-12-31T01:50:44.309Z,13.51
2022-12-31T01:51:44.449Z,13.53
2022-12-31T01:52:44.635Z,13.55
2022-12-31T01:53:44.815Z,13.52
2022-12-31T01:54:44.986Z,13.62
2022-12-31T01:55:45.187Z,13.58
2022-12-31T01:56:45.335Z,13.62
2022-12-31T01:57:45.516Z,13.59
2022-12-31T01:58:45.696Z,13.64
2022-12-31T01:59:45.872Z,13.62
2022-12-31T02:00:46.066Z,13.64
2022-12-31T02:01:46.292Z,13.64
2022-12-31T02:02:46.472Z,13.67
2022-12-31T02:03:46.546Z,13.70
2022-12-31T02:04:46.742Z,13.68
2022-12-31T02:05:46.944Z,13.68
2022-12-31T02:06:47.135Z,13.71
2022-12-31T02:07:47.296Z,13.73
2022-12-31T02:08:47.462Z,13.74
2022-12-31T02:09:47.640Z,13.74
2022-12-31T02:10:47.810Z,13.77
2022-12-31T02:11:48.018Z,13.76
2022-12-31T02:12:48.162Z,13.77
2022-12-31T02:13:49.795Z,13.80
2022-12-31T02:14:48.503Z,13.76
2022-12-31T02:15:48.673Z,13.77
2022-12-31T02:16:48.861Z,13.80
2022-12-31T02:17:49.018Z,13.84
2022-12-31T02:18:49.203Z,13.85
2022-12-31T02:19:49.374Z,13.81
2022-12-31T02:20:49.635Z,13.84
2022-12-31T02:21:49.749Z,13.85
2022-12-31T02:22:49.924Z,13.88
2022-12-31T02:23:50.099Z,13.88
2022-12-31T02:24:50.288Z,13.88
2022-12-31T02:25:50.473Z,13.86
2022-12-31T02:26:50.673Z,13.88
2022-12-31T02:27:50.830Z,13.85
2022-12-31T02:28:51.028Z,13.86
2022-12-31T02:29:51.192Z,13.86
2022-12-31T02:30:51.411Z,13.91
2022-12-31T02:31:51.581Z,13.89
2022-12-31T02:32:51.755Z,13.92
2022-12-31T02:33:51.932Z,13.93
2022-12-31T02:34:52.101Z,13.93
2022-12-31T02:35:52.299Z,13.93
2022-12-31T02:36:52.469Z,13.95
2022-12-31T02:37:52.607Z,13.96
2022-12-31T02:38:52.817Z,13.96
2022-12-31T02:39:52.992Z,13.95
2022-12-31T02:40:53.181Z,13.95
2022-12-31T02:41:53.333Z,13.96
2022-12-31T02:42:55.782Z,14.01
2022-12-31T02:43:53.679Z,13.99
2022-12-31T02:44:53.871Z,13.98
2022-12-31T02:45:54.054Z,13.95
2022-12-31T02:46:54.232Z,13.98
2022-12-31T02:47:54.376Z,14.01
2022-12-31T02:48:54.572Z,14.01
2022-12-31T02:49:54.742Z,14.03
2022-12-31T02:50:54.955Z,14.01
2022-12-31T02:51:55.092Z,14.03
2022-12-31T02:52:55.298Z,14.06
2022-12-31T02:53:55.503Z,14.03
2022-12-31T02:54:55.671Z,14.06
2022-12-31T02:55:55.895Z,14.01
2022-12-31T02:56:55.973Z,14.03
2022-12-31T02:57:56.151Z,14.06
2022-12-31T02:58:56.352Z,14.06
2022-12-31T02:59:56.505Z,14.08
2022-12-31T03:00:56.848Z,14.08
2022-12-31T03:01:56.956Z,14.10
2022-12-31T03:02:57.086Z,14.08
2022-12-31T03:03:57.222Z,14.10
2022-12-31T03:04:57.343Z,14.11
2022-12-31T03:05:57.558Z,14.13
2022-12-31T03:06:57.733Z,14.14
2022-12-31T03:07:57.871Z,14.16
2022-12-31T03:08:58.051Z,14.17
2022-12-31T03:09:58.204Z,14.17
2022-12-31T03:10:58.374Z,14.16
2022-12-31T03:11:58.609Z,14.18
2022-12-31T03:12:58.724Z,14.16
2022-12-31T03:13:58.917Z,14.18
2022-12-31T03:14:59.139Z,14.22
2022-12-31T03:15:59.269Z,14.25
2022-12-31T03:16:59.436Z,14.25
2022-12-31T03:17:59.590Z,14.26
2022-12-31T03:18:59.774Z,14.29
2022-12-31T03:19:59.946Z,14.27
2022-12-31T03:21:00.155Z,14.25
2022-12-31T03:22:00.298Z,14.27
2022-12-31T03:23:00.476Z,14.29
2022-12-31T03:24:00.667Z,14.27
2022-12-31T03:25:00.854Z,14.30
2022-12-31T03:26:01.073Z,14.37
2022-12-31T03:27:01.249Z,14.37
2022-12-31T03:28:01.369Z,14.37
2022-12-31T03:29:01.562Z,14.36
2022-12-31T03:30:01.773Z,14.33
2022-12-31T03:31:01.962Z,14.34
2022-12-31T03:32:02.100Z,14.36
2022-12-31T03:33:02.235Z,14.40
2022-12-31T03:34:02.413Z,14.40
2022-12-31T03:35:02.586Z,14.36
2022-12-31T03:36:02.780Z,14.42
2022-12-31T03:37:02.967Z,14.37
2022-12-31T03:38:03.161Z,14.41
2022-12-31T03:39:03.329Z,14.44
2022-12-31T03:40:03.505Z,14.42
2022-12-31T03:41:03.714Z,14.45
2022-12-31T03:42:03.902Z,14.44
2022-12-31T03:43:04.073Z,14.45
2022-12-31T03:44:04.213Z,14.44
2022-12-31T03:45:04.385Z,14.50
2022-12-31T03:46:04.635Z,14.51
2022-12-31T03:47:04.748Z,14.50
2022-12-31T03:48:04.928Z,14.51
2022-12-31T03:49:05.095Z,14.52
2022-12-31T03:50:05.294Z,14.52
2022-12-31T03:51:05.487Z,14.55
2022-12-31T03:52:05.627Z,14.54
2022-12-31T03:53:05.854Z,14.55
2022-12-31T03:54:05.967Z,14.55
2022-12-31T03:55:06.156Z,14.60
2022-12-31T03:56:06.348Z,14.55
2022-12-31T03:57:06.491Z,14.59
2022-12-31T03:58:06.704Z,14.57
2022-12-31T03:59:06.837Z,14.60
2022-12-31T04:00:07.059Z,14.59
2022-12-31T04:01:07.328Z,14.57
2022-12-31T04:02:07.452Z,14.63
2022-12-31T04:03:07.650Z,14.62
2022-12-31T04:04:07.718Z,14.62
2022-12-31T04:05:07.888Z,14.62
2022-12-31T04:06:08.137Z,14.62
2022-12-31T04:07:08.256Z,14.62
2022-12-31T04:08:08.445Z,14.65
2022-12-31T04:09:08.616Z,14.60
2022-12-31T04:10:08.838Z,14.63
2022-12-31T04:11:08.982Z,14.63
2022-12-31T04:12:09.166Z,14.66
2022-12-31T04:13:09.371Z,14.66
2022-12-31T04:14:09.521Z,14.67
2022-12-31T04:15:09.729Z,14.69
2022-12-31T04:16:09.891Z,14.67
2022-12-31T04:17:10.073Z,14.70
2022-12-31T04:18:10.282Z,14.70
2022-12-31T04:19:10.424Z,14.63
2022-12-31T04:20:10.604Z,14.72
2022-12-31T04:21:10.785Z,14.72
2022-12-31T04:22:10.974Z,14.70
2022-12-31T04:23:11.167Z,14.72
2022-12-31T04:24:11.354Z,14.73
2022-12-31T04:25:11.760Z,14.72
2022-12-31T04:26:11.695Z,14.75
2022-12-31T04:27:11.860Z,14.75
2022-12-31T04:28:12.188Z,14.73
2022-12-31T04:29:12.219Z,14.75
2022-12-31T04:30:12.399Z,14.78
2022-12-31T04:31:12.561Z,14.77
2022-12-31T04:32:12.798Z,14.77
2022-12-31T04:33:12.941Z,14.75
2022-12-31T04:34:13.078Z,14.81
2022-12-31T04:35:13.261Z,14.77
2022-12-31T04:36:13.441Z,14.80
2022-12-31T04:37:13.602Z,14.78
2022-12-31T04:38:13.822Z,14.81
2022-12-31T04:39:13.951Z,14.78
2022-12-31T04:40:14.144Z,14.77
2022-12-31T04:41:14.311Z,14.78
2022-12-31T04:42:14.494Z,14.77
2022-12-31T04:43:14.706Z,14.75
2022-12-31T04:44:14.859Z,14.80
2022-12-31T04:45:15.039Z,14.78
2022-12-31T04:46:15.299Z,14.81
2022-12-31T04:47:20.229Z,14.82
2022-12-31T04:48:16.604Z,14.80
2022-12-31T04:49:15.776Z,14.81
2022-12-31T04:50:15.911Z,14.81
2022-12-31T04:51:16.091Z,14.81
2022-12-31T04:52:16.293Z,14.81
2022-12-31T04:53:16.459Z,14.82
2022-12-31T04:54:16.602Z,14.80
2022-12-31T04:55:16.773Z,14.80
2022-12-31T04:56:16.953Z,14.81
2022-12-31T04:57:17.136Z,14.81
2022-12-31T04:58:17.317Z,14.82
2022-12-31T04:59:17.485Z,14.80
2022-12-31T05:00:17.680Z,14.81
2022-12-31T05:01:17.969Z,14.82
2022-12-31T05:02:18.217Z,14.81
2022-12-31T05:03:18.313Z,14.82
2022-12-31T05:04:18.368Z,14.81
2022-12-31T05:05:18.540Z,14.84
2022-12-31T05:06:18.719Z,14.82
2022-12-31T05:07:18.886Z,14.82
2022-12-31T05:08:19.097Z,14.85
2022-12-31T05:09:19.328Z,14.84
2022-12-31T05:10:19.407Z,14.84
2022-12-31T05:11:19.600Z,14.82
2022-12-31T05:12:19.785Z,14.82
2022-12-31T05:13:19.948Z,14.85
2022-12-31T05:14:20.139Z,14.85
2022-12-31T05:15:20.312Z,14.88
2022-12-31T05:16:20.551Z,14.85
2022-12-31T05:17:20.675Z,14.84
2022-12-31T05:18:20.874Z,14.84
2022-12-31T05:19:21.207Z,14.87
2022-12-31T05:20:21.215Z,14.87
2022-12-31T05:21:21.353Z,14.82
2022-12-31T05:22:21.561Z,14.90
2022-12-31T05:23:21.758Z,14.87
2022-12-31T05:24:21.921Z,14.87
2022-12-31T05:25:22.079Z,14.85
2022-12-31T05:26:22.265Z,14.84
2022-12-31T05:27:22.434Z,14.85
2022-12-31T05:28:22.659Z,14.84
2022-12-31T05:29:22.804Z,14.84
2022-12-31T05:30:22.957Z,14.90
2022-12-31T05:31:23.150Z,14.87
2022-12-31T05:32:23.318Z,14.90
2022-12-31T05:33:23.540Z,14.88
2022-12-31T05:34:23.667Z,14.90
2022-12-31T05:35:23.833Z,14.90
2022-12-31T05:36:23.978Z,14.90
2022-12-31T05:37:24.194Z,14.88
2022-12-31T05:38:24.354Z,14.85
2022-12-31T05:39:24.547Z,14.90
2022-12-31T05:40:24.661Z,14.90
2022-12-31T05:41:24.825Z,14.88
2022-12-31T05:42:25.038Z,14.85
2022-12-31T05:43:25.203Z,14.91
2022-12-31T05:44:25.403Z,14.85
2022-12-31T05:45:30.741Z,14.90
2022-12-31T05:46:26.776Z,14.88
2022-12-31T05:47:25.862Z,14.88
2022-12-31T05:48:26.054Z,14.88
2022-12-31T05:49:26.253Z,14.87
2022-12-31T05:50:26.396Z,14.87
2022-12-31T05:51:26.558Z,14.88
2022-12-31T05:52:26.749Z,14.87
2022-12-31T05:53:26.916Z,14.87
2022-12-31T05:54:27.140Z,14.85
2022-12-31T05:55:27.269Z,14.88
2022-12-31T05:56:27.457Z,14.90
2022-12-31T05:57:27.629Z,14.91
2022-12-31T05:58:27.822Z,14.88
2022-12-31T05:59:28.006Z,14.91
2022-12-31T06:00:28.195Z,14.88
2022-12-31T06:01:28.392Z,14.91
2022-12-31T06:02:28.607Z,14.92
2022-12-31T06:03:28.721Z,14.92
2022-12-31T06:04:28.906Z,14.91
2022-12-31T06:05:29.048Z,14.88
2022-12-31T06:06:29.259Z,14.85
2022-12-31T06:07:29.413Z,14.88
2022-12-31T06:08:29.600Z,14.90
2022-12-31T06:09:29.788Z,14.82
2022-12-31T06:10:29.958Z,14.85
2022-12-31T06:11:30.125Z,14.87
2022-12-31T06:12:30.322Z,14.88
2022-12-31T06:13:30.496Z,14.88
2022-12-31T06:14:30.690Z,14.88
2022-12-31T06:15:30.910Z,14.87
2022-12-31T06:16:31.013Z,14.87
2022-12-31T06:17:31.188Z,14.91
2022-12-31T06:18:31.363Z,14.91
2022-12-31T06:19:31.569Z,14.87
2022-12-31T06:20:31.722Z,14.88
2022-12-31T06:21:31.905Z,14.90
2022-12-31T06:22:32.070Z,14.85
2022-12-31T06:23:32.261Z,14.88
2022-12-31T06:24:32.450Z,14.85
2022-12-31T06:25:32.590Z,14.87
2022-12-31T06:26:32.770Z,14.88
2022-12-31T06:27:32.945Z,14.88
2022-12-31T06:28:33.155Z,14.91
2022-12-31T06:29:33.329Z,14.91
2022-12-31T06:30:33.516Z,14.91
2022-12-31T06:31:33.677Z,14.95
2022-12-31T06:32:33.829Z,14.95
2022-12-31T06:33:33.994Z,14.96
2022-12-31T06:34:34.201Z,14.98
2022-12-31T06:35:34.379Z,14.96
2022-12-31T06:36:34.543Z,14.98
2022-12-31T06:37:34.720Z,14.99
2022-12-31T06:38:34.894Z,14.98
2022-12-31T06:39:35.086Z,15.00
2022-12-31T06:40:35.256Z,15.00
2022-12-31T06:41:35.437Z,15.02
2022-12-31T06:42:35.649Z,15.03
2022-12-31T06:43:35.808Z,15.02
2022-12-31T06:44:36.002Z,15.06
2022-12-31T06:45:36.132Z,15.03
2022-12-31T06:46:36.332Z,15.05
2022-12-31T06:47:36.504Z,15.09
2022-12-31T06:48:36.678Z,15.10
2022-12-31T06:49:36.878Z,15.10
2022-12-31T06:50:37.048Z,15.09
2022-12-31T06:51:37.227Z,15.10
2022-12-31T06:52:37.436Z,15.12
2022-12-31T06:53:37.587Z,15.14
2022-12-31T06:54:37.788Z,15.12
2022-12-31T06:55:37.956Z,15.14
2022-12-31T06:56:38.150Z,15.14
2022-12-31T06:57:38.316Z,15.14
2022-12-31T06:58:38.552Z,15.15
2022-12-31T06:59:38.649Z,15.15
2022-12-31T07:00:38.858Z,15.15
2022-12-31T07:01:39.101Z,15.20
2022-12-31T07:02:39.266Z,15.22
2022-12-31T07:03:39.389Z,15.21
2022-12-31T07:04:39.523Z,15.20
2022-12-31T07:05:39.701Z,15.24
2022-12-31T07:06:39.888Z,15.25
2022-12-31T07:07:40.058Z,15.25
2022-12-31T07:08:40.272Z,15.28
2022-12-31T07:09:40.423Z,15.27
2022-12-31T07:10:40.570Z,15.27
2022-12-31T07:11:40.782Z,15.27
2022-12-31T07:12:40.979Z,15.30
2022-12-31T07:13:41.071Z,15.30
2022-12-31T07:14:41.264Z,15.33
2022-12-31T07:15:41.469Z,15.35
2022-12-31T07:16:41.613Z,15.33
2022-12-31T07:17:41.795Z,15.35
2022-12-31T07:18:41.947Z,15.40
2022-12-31T07:19:42.137Z,15.39
2022-12-31T07:20:42.322Z,15.38
2022-12-31T07:21:42.514Z,15.43
2022-12-31T07:22:42.726Z,15.40
2022-12-31T07:23:42.911Z,15.43
2022-12-31T07:24:43.037Z,15.47
2022-12-31T07:25:43.218Z,15.46
2022-12-31T07:26:43.366Z,15.49
2022-12-31T07:27:43.548Z,15.49
2022-12-31T07:28:43.737Z,15.54
2022-12-31T07:29:43.920Z,15.53
2022-12-31T07:30:44.080Z,15.55
2022-12-31T07:31:44.253Z,15.57
2022-12-31T07:32:44.470Z,15.57
2022-12-31T07:33:44.632Z,15.60
2022-12-31T07:34:44.783Z,15.62
2022-12-31T07:35:44.972Z,15.58
2022-12-31T07:36:45.096Z,15.63
2022-12-31T07:37:45.280Z,15.62
2022-12-31T07:38:45.465Z,15.60
2022-12-31T07:39:45.633Z,15.65
2022-12-31T07:40:45.797Z,15.66
2022-12-31T07:41:45.961Z,15.70
2022-12-31T07:42:46.122Z,15.70
2022-12-31T07:43:46.287Z,15.66
2022-12-31T07:44:46.453Z,15.71
2022-12-31T07:45:46.632Z,15.71
2022-12-31T07:46:46.828Z,15.70
2022-12-31T07:47:46.982Z,15.76
2022-12-31T07:48:47.145Z,15.79
2022-12-31T07:49:47.371Z,15.77
2022-12-31T07:50:47.472Z,15.80
2022-12-31T07:51:47.643Z,15.81
2022-12-31T07:52:47.813Z,15.77
2022-12-31T07:53:47.988Z,15.80
2022-12-31T07:54:48.153Z,15.83
2022-12-31T07:55:48.307Z,15.86
2022-12-31T07:56:48.466Z,15.84
2022-12-31T07:57:48.647Z,15.87
2022-12-31T07:58:48.816Z,15.91
2022-12-31T07:59:48.974Z,15.92
2022-12-31T08:00:49.172Z,15.92
2022-12-31T08:01:49.440Z,15.95
2022-12-31T08:02:49.539Z,15.99
2022-12-31T08:03:49.648Z,16.05
2022-12-31T08:04:49.813Z,16.05
2022-12-31T08:05:49.968Z,16.11
2022-12-31T08:06:50.127Z,16.17
2022-12-31T08:07:50.343Z,16.23
2022-12-31T08:08:50.506Z,16.28
2022-12-31T08:09:50.672Z,16.29
2022-12-31T08:10:50.831Z,16.35
2022-12-31T08:11:50.994Z,16.38
2022-12-31T08:12:51.160Z,16.46
2022-12-31T08:13:51.320Z,16.49
2022-12-31T08:14:51.469Z,16.53
2022-12-31T08:15:51.661Z,16.62
2022-12-31T08:16:51.813Z,16.62
2022-12-31T08:17:51.988Z,16.66
2022-12-31T08:18:52.165Z,16.72
2022-12-31T08:19:52.338Z,16.74
2022-12-31T08:20:52.497Z,16.83
2022-12-31T08:21:52.659Z,16.82
2022-12-31T08:22:52.843Z,16.89
2022-12-31T08:23:53.063Z,16.86
2022-12-31T08:24:53.221Z,16.94
2022-12-31T08:25:53.380Z,16.99
2022-12-31T08:26:53.598Z,17.02
2022-12-31T08:27:53.727Z,17.06
2022-12-31T08:28:53.914Z,17.09
2022-12-31T08:29:54.083Z,17.12
2022-12-31T08:30:54.290Z,17.15
2022-12-31T08:31:54.470Z,17.12
2022-12-31T08:32:54.587Z,17.12
2022-12-31T08:33:54.761Z,17.07
2022-12-31T08:34:54.949Z,17.13
2022-12-31T08:35:55.120Z,17.07
2022-12-31T08:36:55.281Z,17.09
2022-12-31T08:37:55.571Z,17.01
2022-12-31T08:38:55.627Z,17.01
2022-12-31T08:39:55.833Z,16.96
2022-12-31T08:40:55.967Z,16.91
2022-12-31T08:41:56.147Z,16.90
2022-12-31T08:42:56.309Z,16.89
2022-12-31T08:43:56.561Z,16.93
2022-12-31T08:44:56.654Z,16.90
2022-12-31T08:45:56.858Z,16.96
2022-12-31T08:46:57.022Z,16.93
2022-12-31T08:48:00.116Z,16.91
2022-12-31T08:48:57.365Z,16.93
2022-12-31T08:49:57.532Z,16.90
2022-12-31T08:50:57.685Z,16.90
2022-12-31T08:51:57.881Z,16.93
2022-12-31T08:52:58.035Z,16.94
2022-12-31T08:53:58.265Z,16.96
2022-12-31T08:54:58.380Z,16.99
2022-12-31T08:55:58.543Z,17.02
2022-12-31T08:56:58.712Z,17.06
2022-12-31T08:57:58.895Z,17.07
2022-12-31T08:58:59.092Z,17.10
2022-12-31T08:59:59.246Z,17.06
2022-12-31T09:00:59.561Z,17.06
2022-12-31T09:01:59.656Z,17.09
2022-12-31T09:02:59.753Z,17.07
2022-12-31T09:04:00.479Z,17.09
2022-12-31T09:05:00.099Z,17.09
2022-12-31T09:06:00.274Z,17.12
2022-12-31T09:07:00.427Z,17.07
2022-12-31T09:08:00.598Z,17.12
2022-12-31T09:09:00.766Z,17.15
2022-12-31T09:10:00.963Z,17.16
2022-12-31T09:11:01.135Z,17.15
2022-12-31T09:12:01.321Z,17.16
2022-12-31T09:13:01.509Z,17.15
2022-12-31T09:14:01.688Z,17.17
2022-12-31T09:15:01.880Z,17.17
2022-12-31T09:16:02.076Z,17.20
2022-12-31T09:17:02.192Z,17.20
2022-12-31T09:18:02.365Z,17.23
2022-12-31T09:19:02.560Z,17.21
2022-12-31T09:20:02.680Z,17.21
2022-12-31T09:21:02.859Z,17.25
2022-12-31T09:22:03.041Z,17.25
2022-12-31T09:23:03.191Z,17.32
2022-12-31T09:24:09.106Z,17.38
2022-12-31T09:25:04.539Z,17.42
2022-12-31T09:26:03.737Z,17.46
2022-12-31T09:27:03.888Z,17.50
2022-12-31T09:28:04.102Z,17.55
2022-12-31T09:29:04.248Z,17.60
2022-12-31T09:30:04.444Z,17.62
2022-12-31T09:31:04.594Z,17.70
2022-12-31T09:32:04.842Z,17.78
2022-12-31T09:33:05.006Z,17.83
2022-12-31T09:34:05.117Z,17.85
2022-12-31T09:35:05.409Z,17.85
2022-12-31T09:36:05.509Z,17.95
2022-12-31T09:37:05.650Z,17.95
2022-12-31T09:38:11.295Z,18.01
2022-12-31T09:39:07.024Z,18.04
2022-12-31T09:40:06.215Z,18.02
2022-12-31T09:41:06.347Z,18.12
2022-12-31T09:42:06.527Z,18.10
2022-12-31T09:43:06.706Z,18.13
2022-12-31T09:44:06.869Z,18.15
2022-12-31T09:45:07.058Z,18.23
2022-12-31T09:46:07.258Z,18.26
2022-12-31T09:47:07.368Z,18.25
2022-12-31T09:48:07.532Z,18.35
2022-12-31T09:49:07.686Z,18.38
2022-12-31T09:50:07.868Z,18.40
2022-12-31T09:51:08.039Z,18.41
2022-12-31T09:52:08.238Z,18.38
2022-12-31T09:53:08.404Z,18.41
2022-12-31T09:54:08.558Z,18.42
2022-12-31T09:55:08.740Z,18.46
2022-12-31T09:56:08.908Z,18.44
2022-12-31T09:57:09.069Z,18.42
2022-12-31T09:58:09.260Z,18.51
2022-12-31T09:59:09.420Z,18.46
2022-12-31T10:00:09.600Z,18.51
2022-12-31T10:01:09.838Z,18.51
2022-12-31T10:02:10.011Z,18.53
2022-12-31T10:03:10.084Z,18.56
2022-12-31T10:04:10.257Z,18.58
2022-12-31T10:05:10.428Z,18.53
2022-12-31T10:06:10.624Z,18.50
2022-12-31T10:07:10.764Z,18.50
2022-12-31T10:08:10.923Z,18.53
2022-12-31T10:09:11.083Z,18.51
2022-12-31T10:10:11.294Z,18.56
2022-12-31T10:11:11.430Z,18.58
2022-12-31T10:12:11.633Z,18.58
2022-12-31T10:13:11.785Z,18.66
2022-12-31T10:14:11.976Z,18.68
2022-12-31T10:15:12.186Z,18.76
2022-12-31T10:16:12.356Z,18.78
2022-12-31T10:17:12.609Z,18.87
2022-12-31T10:18:12.677Z,18.88
2022-12-31T10:19:12.867Z,18.94
2022-12-31T10:20:13.008Z,18.97
2022-12-31T10:21:13.178Z,19.05
2022-12-31T10:22:13.371Z,19.09
2022-12-31T10:23:13.528Z,19.15
2022-12-31T10:24:13.723Z,19.19
2022-12-31T10:25:13.893Z,19.27
2022-12-31T10:26:14.075Z,19.28
2022-12-31T10:27:14.234Z,19.33
2022-12-31T10:28:14.417Z,19.40
2022-12-31T10:29:14.588Z,19.40
2022-12-31T10:30:14.761Z,19.45
2022-12-31T10:31:15.001Z,19.48
2022-12-31T10:32:15.093Z,19.51
2022-12-31T10:33:15.251Z,19.58
2022-12-31T10:34:15.454Z,19.56
2022-12-31T10:35:15.591Z,19.63
2022-12-31T10:36:15.801Z,19.63
2022-12-31T10:37:15.959Z,19.70
2022-12-31T10:38:16.129Z,19.70
2022-12-31T10:39:22.223Z,19.73
2022-12-31T10:40:17.521Z,19.75
2022-12-31T10:41:16.604Z,19.73
2022-12-31T10:42:16.774Z,19.74
2022-12-31T10:43:16.936Z,19.77
2022-12-31T10:44:17.134Z,19.79
2022-12-31T10:45:17.265Z,19.77
2022-12-31T10:46:22.596Z,19.77
2022-12-31T10:47:18.612Z,19.79
2022-12-31T10:48:17.767Z,19.81
2022-12-31T10:49:17.936Z,19.81
2022-12-31T10:50:18.095Z,19.79
2022-12-31T10:51:18.254Z,19.82
2022-12-31T10:52:18.413Z,19.85
2022-12-31T10:53:18.578Z,19.85
2022-12-31T10:54:18.757Z,19.90
2022-12-31T10:55:18.926Z,19.93
2022-12-31T10:56:19.103Z,19.98
2022-12-31T10:57:19.297Z,20.02
2022-12-31T10:58:19.455Z,20.06
2022-12-31T10:59:19.602Z,20.14
2022-12-31T11:00:19.805Z,20.17
2022-12-31T11:01:20.097Z,20.21
2022-12-31T11:02:20.359Z,20.26
2022-12-31T11:03:27.095Z,20.30
2022-12-31T11:04:21.507Z,20.31
2022-12-31T11:05:20.671Z,20.38
2022-12-31T11:06:20.841Z,20.35
2022-12-31T11:07:21.020Z,20.41
2022-12-31T11:08:21.191Z,20.42
2022-12-31T11:09:21.342Z,20.41
2022-12-31T11:10:21.539Z,20.48
2022-12-31T11:11:21.719Z,20.57
2022-12-31T11:12:21.855Z,20.59
2022-12-31T11:13:22.028Z,20.64
2022-12-31T11:14:22.226Z,20.74
2022-12-31T11:15:22.431Z,20.79
2022-12-31T11:16:22.660Z,20.85
2022-12-31T11:17:22.721Z,20.89
2022-12-31T11:18:22.904Z,20.94
2022-12-31T11:19:23.088Z,20.97
2022-12-31T11:20:23.264Z,21.00
2022-12-31T11:21:28.304Z,21.06
2022-12-31T11:22:24.617Z,21.14
2022-12-31T11:23:23.764Z,21.14
2022-12-31T11:24:23.919Z,21.18
2022-12-31T11:25:24.116Z,21.16
2022-12-31T11:26:24.299Z,21.19
2022-12-31T11:27:24.480Z,21.19
2022-12-31T11:28:24.641Z,21.16
2022-12-31T11:29:24.789Z,21.18
2022-12-31T11:30:24.957Z,21.21
2022-12-31T11:31:25.192Z,21.21
2022-12-31T11:32:25.347Z,21.23
2022-12-31T11:33:25.474Z,21.35
2022-12-31T11:34:25.665Z,21.37
2022-12-31T11:35:25.811Z,21.37
2022-12-31T11:36:25.978Z,21.34
2022-12-31T11:37:26.174Z,21.26
2022-12-31T11:38:26.314Z,21.22
2022-12-31T11:39:31.091Z,21.16
2022-12-31T11:40:26.663Z,21.16
2022-12-31T11:41:26.869Z,21.16
2022-12-31T11:42:27.036Z,21.18
2022-12-31T11:43:27.195Z,21.21
2022-12-31T11:44:27.361Z,21.29
2022-12-31T11:45:27.525Z,21.32
2022-12-31T11:46:27.746Z,21.35
2022-12-31T11:47:27.877Z,21.39
2022-12-31T11:48:31.088Z,21.41
2022-12-31T11:49:28.195Z,21.42
2022-12-31T11:50:28.362Z,21.44
2022-12-31T11:51:28.543Z,21.41
2022-12-31T11:52:28.715Z,21.37
2022-12-31T11:53:28.901Z,21.31
2022-12-31T11:54:29.069Z,21.25
2022-12-31T11:55:29.236Z,21.23
2022-12-31T11:56:29.390Z,21.15
2022-12-31T11:57:29.619Z,21.14
2022-12-31T11:58:29.785Z,21.09
2022-12-31T11:59:29.899Z,21.04
2022-12-31T12:00:30.070Z,21.03
2022-12-31T12:01:30.293Z,21.01
2022-12-31T12:02:30.463Z,20.99
2022-12-31T12:03:30.689Z,20.97
2022-12-31T12:04:30.799Z,20.96
2022-12-31T12:05:30.935Z,20.96
2022-12-31T12:06:31.095Z,20.93
2022-12-31T12:07:31.299Z,20.96
2022-12-31T12:08:31.460Z,20.93
2022-12-31T12:09:31.603Z,20.91
2022-12-31T12:10:36.217Z,20.89
2022-12-31T12:11:32.986Z,20.91
2022-12-31T12:12:32.116Z,20.93
2022-12-31T12:13:32.324Z,20.91
2022-12-31T12:14:32.466Z,20.94
2022-12-31T12:15:32.657Z,20.89
2022-12-31T12:16:32.836Z,20.93
2022-12-31T12:17:33.019Z,20.91
2022-12-31T12:18:33.186Z,20.94
2022-12-31T12:19:33.361Z,20.91
2022-12-31T12:20:33.549Z,20.91
2022-12-31T12:21:33.726Z,20.88
2022-12-31T12:22:33.915Z,20.84
2022-12-31T12:23:34.107Z,20.85
2022-12-31T12:24:34.284Z,20.82
2022-12-31T12:25:34.443Z,20.85
2022-12-31T12:26:34.615Z,20.86
2022-12-31T12:27:34.772Z,20.81
2022-12-31T12:28:37.409Z,20.84
2022-12-31T12:29:36.124Z,20.86
2022-12-31T12:30:35.281Z,20.86
2022-12-31T12:31:35.498Z,20.84
2022-12-31T12:32:35.641Z,20.86
2022-12-31T12:33:35.836Z,20.88
2022-12-31T12:34:36.091Z,20.91
2022-12-31T12:35:36.199Z,20.91
2022-12-31T12:36:36.349Z,20.86
2022-12-31T12:37:36.539Z,20.88
2022-12-31T12:38:36.705Z,20.86
2022-12-31T12:39:36.909Z,20.86
2022-12-31T12:40:37.073Z,20.86
2022-12-31T12:41:37.270Z,20.85
2022-12-31T12:42:37.441Z,20.85
2022-12-31T12:43:37.619Z,20.78
2022-12-31T12:44:37.829Z,20.72
2022-12-31T12:45:37.951Z,20.64
2022-12-31T12:46:38.157Z,20.57
2022-12-31T12:47:38.323Z,20.48
2022-12-31T12:48:38.507Z,20.48
2022-12-31T12:49:38.710Z,20.44
2022-12-31T12:50:38.878Z,20.44
2022-12-31T12:51:39.055Z,20.42
2022-12-31T12:52:39.239Z,20.38
2022-12-31T12:53:39.436Z,20.39
2022-12-31T12:54:39.617Z,20.36